• Join FlightAware (Why Join?)
  • Login
  • US Flag 
05:42AM EDT


 

Airport Tracker/Info


-or-


 

Live Flight TrackerFlight Track Log ✈ DAL1515 ✈ 01-Jul-2013 ✈ KATL - KALB

Flight Track Log - Related Links

Times and Time Zones

All times are in EDT time to prevent confusion due to time zone crossing. See the DAL1515 flight status page for this flight to view local times or setup timezone preferences in your user account.

Time Position Orientation Groundspeed Altitude Reporting Facility
EDT Latitude Longitude Course Direction KTS MPH feet Rate Location/Type
08:26PM 33.6333 -84.5000 53° Northeast 213 245 2,800  Level Atlanta TRACON
08:27PM 33.5833 -84.5667 228° Southwest 265 305 5,500 2,880 Climbing Atlanta TRACON
08:28PM 33.7603 -83.9607 54° Northeast  Level FlightAware Approximate
08:28PM 33.5167 -84.5833 192° South 270 311 8,600  Level Atlanta TRACON
08:29PM 33.8392 -83.8292 54° Northeast  Level FlightAware Approximate
08:29PM 33.4469 -84.5142 140° Southeast 255 293 11,300  Level Atlanta Center
08:30PM 33.9246 -83.7039 53° Northeast  Level FlightAware Approximate
08:30PM 33.4703 -84.3900 77° East 326 375 12,500  Level Atlanta Center
08:31PM 34.0056 -83.5740 53° Northeast  Level FlightAware Approximate
08:31PM 33.4936 -84.2506 79° East 375 432 14,500  Level Atlanta Center
08:32PM 33.5292 -84.1236 71° East 406 467 17,500 2,340 Climbing Atlanta Center
08:33PM 33.5583 -83.9789 76° East 431 496 19,200 1,680 Climbing Atlanta Center
08:34PM 33.5894 -83.8344 75° East 437 503 20,900 1,680 Climbing Atlanta Center
08:35PM 33.6206 -83.6844 76° East 455 524 22,600 1,440 Climbing Atlanta Center
08:36PM 33.6553 -83.5272 75° East 473 544 23,800 1,380 Climbing Atlanta Center
08:37PM 33.6942 -83.3522 75° East 478 550 25,400 1,500 Climbing Atlanta Center
08:38PM 33.7350 -83.1944 73° East 489 563 26,800 1,440 Climbing Atlanta Center
08:39PM 33.8342 -83.0761 45° Northeast 488 562 28,300 1,320 Climbing Atlanta Center
08:40PM 33.9442 -82.9719 38° Northeast 483 556 29,500 1,020 Climbing Atlanta Center
08:41PM 34.0389 -82.8506 47° Northeast 488 562 30,400 840 Climbing Atlanta Center
08:42PM 34.1358 -82.7286 46° Northeast 494 568 31,200 840 Climbing Atlanta Center
08:43PM 34.2367 -82.6092 44° Northeast 494 568 32,100 600 Climbing Atlanta Center
08:44PM 34.3483 -82.5067 37° Northeast 494 568 32,500 420 Climbing Atlanta Center
08:45PM 34.4658 -82.4086 35° Northeast 501 577 33,000 240 Climbing Atlanta Center
08:46PM 34.5794 -82.3106 35° Northeast 501 577 33,000  Level Atlanta Center
08:47PM 34.6992 -82.2197 32° Northeast 501 577 33,000  Level Atlanta Center
08:48PM 34.8253 -82.1411 27° Northeast 501 577 33,000  Level Atlanta Center
08:49PM 34.9514 -82.0647 26° Northeast 506 582 33,000  Level Atlanta Center
08:50PM 35.0792 -81.9803 28° Northeast 510 587 33,000  Level Atlanta Center
08:51PM 35.2072 -81.9008 27° Northeast 510 587 33,000  Level Atlanta Center
08:52PM 35.3208 -81.8319 26° Northeast 505 581 33,000  Level Atlanta Center
08:53PM 35.4486 -81.7519 27° Northeast 505 581 33,000  Level Atlanta Center
08:54PM 35.5786 -81.6742 26° Northeast 505 581 33,000  Level Atlanta Center
08:55PM 35.7106 -81.5911 27° Northeast 510 587 33,000  Level Atlanta Center
08:56PM 35.8506 -81.5000 28° Northeast 510 587 33,000  Level Atlanta Center
08:57PM 35.9822 -81.4189 26° Northeast 515 593 33,000  Level Atlanta Center
08:58PM 36.1119 -81.3400 26° Northeast 521 600 33,000  Level Atlanta Center
08:59PM 36.2417 -81.2586 27° Northeast 521 600 33,000  Level Atlanta Center
09:00PM 36.3731 -81.1739 27° Northeast 521 600 33,000  Level Atlanta Center
09:03PM 36.6644 -80.9908 27° Northeast 507 583 33,000  Level Washington Center
09:04PM 36.7933 -80.9039 28° Northeast 514 592 33,000  Level Washington Center
09:05PM 36.9178 -80.8267 26° Northeast 502 578 33,000  Level Washington Center
09:06PM 37.0467 -80.7419 28° Northeast 507 583 33,000  Level Washington Center
09:07PM 37.1806 -80.6831 19° North 507 583 33,000  Level Washington Center
09:08PM 37.3094 -80.6447 13° North 515 593 33,000  Level Washington Center
09:09PM 37.4514 -80.5992 14° North 515 593 33,000  Level Washington Center
09:10PM 37.5931 -80.5508 15° North 515 593 33,000  Level Washington Center
09:11PM 37.7369 -80.5025 15° North 520 598 33,000  Level Washington Center
09:12PM 37.8764 -80.4564 15° North 520 598 33,000  Level Washington Center
09:13PM 38.0328 -80.4058 14° North 520 598 33,000  Level Washington Center
09:14PM 38.1744 -80.3569 15° North 520 598 33,100 240 Climbing Washington Center
09:15PM 38.3128 -80.2864 22° Northeast 520 598 33,600 540 Climbing Washington Center
09:16PM 38.4378 -80.1856 32° Northeast 520 598 34,200 480 Climbing Washington Center
09:17PM 38.5500 -80.0889 34° Northeast 530 610 34,600 360 Climbing Washington Center
09:18PM 38.6725 -79.9847 34° Northeast 530 610 35,000 180 Climbing Washington Center
09:19PM 38.7931 -79.8828 33° Northeast 525 604 35,000  Level Washington Center
09:20PM 38.9986 -79.7017 34° Northeast 524 603 35,000  Level Cleveland Center
09:21PM 39.1228 -79.5931 34° Northeast 529 609 35,000  Level Cleveland Center
09:22PM 39.2447 -79.4869 34° Northeast 529 609 35,000  Level Cleveland Center
09:23PM 39.3667 -79.3803 34° Northeast 529 609 35,000  Level Cleveland Center
09:24PM 39.4906 -79.2758 34° Northeast 529 609 35,000  Level Cleveland Center
09:25PM 39.4955 -79.2100 34° Northeast  Level FlightAware Approximate
09:25PM 39.6144 -79.1656 34° Northeast 529 609 35,000  Level Cleveland Center
09:26PM 39.7358 -79.0578 34° Northeast 529 609 35,000  Level Cleveland Center
09:27PM 39.8533 -78.9525 35° Northeast 529 609 35,000  Level Cleveland Center
09:28PM 39.9747 -78.8439 34° Northeast 529 609 35,000  Level Cleveland Center
09:29PM 40.0961 -78.7375 34° Northeast 529 609 35,000  Level Cleveland Center
09:30PM 40.2192 -78.6281 34° Northeast 529 609 35,000  Level Cleveland Center
09:31PM 40.3383 -78.5211 34° Northeast 524 603 35,000  Level Cleveland Center
09:33PM 40.5803 -78.3000 35° Northeast 553 636 35,000  Level New York Center
09:34PM 40.6994 -78.1925 34° Northeast 539 620 35,000  Level New York Center
09:35PM 40.8211 -78.0822 34° Northeast 534 615 35,000  Level New York Center
09:36PM 40.9367 -77.9656 37° Northeast 522 601 35,000  Level New York Center
09:37PM 41.0367 -77.8247 47° Northeast 512 589 35,000 -540 Level New York Center
09:38PM 41.1236 -77.6961 48° Northeast 512 589 34,000 -1,380 Descending New York Center
09:39PM 41.2192 -77.5539 48° Northeast 518 596 32,300 -1,860 Descending New York Center
09:40PM 41.3169 -77.4119 47° Northeast 518 596 30,400 -1,680 Descending New York Center
09:41PM 41.4192 -77.2558 49° Northeast 512 589 29,000 -720 Descending New York Center
09:42PM 41.5144 -77.1128 48° Northeast 512 589 29,000  Level New York Center
09:43PM 41.6094 -76.9719 48° Northeast 512 589 29,000  Level New York Center
09:44PM 41.7042 -76.8306 48° Northeast 512 589 29,000  Level New York Center
09:45PM 41.7969 -76.6858 49° Northeast 512 589 29,000 -900 Level New York Center
09:48PM 42.0314 -76.3283 48° Northeast 511 588 26,000 -1,260 Descending Boston Center
09:49PM 42.1194 -76.1883 50° Northeast 506 582 24,700 -1,020 Descending Boston Center
09:50PM 42.1911 -76.0356 58° Northeast 494 568 24,000 -360 Descending Boston Center
09:51PM 42.2297 -75.8725 72° East 467 537 24,000  Level Boston Center
09:52PM 42.2556 -75.6969 79° East 459 528 24,000 -960 Level Boston Center
09:53PM 42.2944 -75.4997 75° East 454 522 21,900 -1,620 Descending Boston Center
09:54PM 42.3342 -75.3444 71° East 446 513 20,500 -1,560 Descending Boston Center
09:55PM 42.3753 -75.2000 69° East 432 497 18,800 -1,680 Descending Boston Center
09:56PM 42.4033 -75.0692 74° East 410 472 17,200 -1,620 Descending Boston Center
09:57PM 42.4272 -74.9350 76° East 383 441 15,600 -1,980 Descending Boston Center
09:58PM 42.4544 -74.8264 71° East 355 409 13,900 -1,800 Descending Boston Center
09:58PM 42.4633 -74.8069 58° Northeast 365 420 13,500 -1,740 Descending Boston Center
09:59PM 42.4928 -74.6900 71° East 357 411 12,000 -1,560 Descending Boston Center
10:00PM 42.5097 -74.5667 79° East 334 384 11,000 -900 Descending Boston Center
10:01PM 42.5203 -74.4458 83° East 319 367 10,300 -1,440 Descending Boston Center
10:02PM 42.5286 -74.3219 85° East 302 348 8,200 -1,860 Descending Boston Center
10:03PM 42.5367 -74.2125 84° East 298 343 6,600 -1,440 Descending Boston Center
10:04PM 42.5300 -74.1025 95° East 287 330 5,400 -1,140 Descending Boston Center
10:05PM 42.5292 -74.0036 91° East 264 304 4,300 -1,080 Descending Boston Center
10:06PM 42.5264 -73.9106 92° East 237 273 3,300 -660 Descending Boston Center
10:07PM 42.5400 -73.8264 78° East 235 270 3,000 -300 Descending Boston Center